createdAt,value
2022-11-21T00:02:12.127Z,0.10
2022-11-21T00:04:40.377Z,0.10
2022-11-21T00:07:08.562Z,0.10
2022-11-21T00:09:36.798Z,0.10
2022-11-21T00:12:05.049Z,0.10
2022-11-21T00:14:34.611Z,0.10
2022-11-21T00:17:02.562Z,0.00
2022-11-21T00:19:31.919Z,0.00
2022-11-21T00:22:00.045Z,0.00
2022-11-21T00:24:28.305Z,0.00
2022-11-21T00:26:56.477Z,-0.10
2022-11-21T00:29:24.536Z,-0.10
2022-11-21T00:31:52.526Z,-0.10
2022-11-21T00:34:20.522Z,-0.10
2022-11-21T00:36:49.874Z,-0.20
2022-11-21T00:39:18.006Z,-0.20
2022-11-21T00:41:46.175Z,-0.20
2022-11-21T00:44:14.203Z,-0.20
2022-11-21T00:46:42.247Z,-0.30
2022-11-21T00:49:10.239Z,-0.30
2022-11-21T00:51:40.221Z,-0.30
2022-11-21T00:54:10.130Z,-0.30
2022-11-21T00:56:38.084Z,-0.30
2022-11-21T00:59:06.092Z,-0.40
2022-11-21T01:01:34.107Z,-0.40
2022-11-21T01:04:02.123Z,-0.40
2022-11-21T01:06:30.171Z,-0.50
2022-11-21T01:08:58.206Z,-0.60
2022-11-21T01:11:27.600Z,-0.60
2022-11-21T01:13:55.666Z,-0.60
2022-11-21T01:16:25.371Z,-0.60
2022-11-21T01:18:53.657Z,-0.60
2022-11-21T01:21:23.856Z,-0.70
2022-11-21T01:23:52.479Z,-0.70
2022-11-21T01:26:22.419Z,-0.70
2022-11-21T01:28:52.522Z,-0.80
2022-11-21T01:31:22.593Z,-0.80
2022-11-21T01:33:51.325Z,-0.80
2022-11-21T01:36:20.810Z,-0.80
2022-11-21T01:38:51.577Z,-0.80
2022-11-21T01:41:24.313Z,-0.80
2022-11-21T01:43:53.725Z,-0.70
2022-11-21T01:46:23.239Z,-0.70
2022-11-21T01:48:56.394Z,-0.70
2022-11-21T01:51:29.523Z,-0.70
2022-11-21T01:54:02.507Z,-0.70
2022-11-21T01:56:35.352Z,-0.70
2022-11-21T01:59:05.979Z,-0.60
2022-11-21T02:01:36.161Z,-0.70
2022-11-21T02:04:05.716Z,-0.70
2022-11-21T02:06:37.176Z,-0.70
2022-11-21T02:09:06.956Z,-0.70
2022-11-21T02:11:40.976Z,-0.70
2022-11-21T02:14:10.635Z,-0.70
2022-11-21T02:16:39.561Z,-0.70
2022-11-21T02:19:09.807Z,-0.80
2022-11-21T02:21:48.072Z,-0.80
2022-11-21T02:24:22.116Z,-0.70
2022-11-21T02:26:51.871Z,-0.70
2022-11-21T02:29:20.076Z,-0.70
2022-11-21T02:31:48.106Z,-0.70
2022-11-21T02:34:16.151Z,-0.60
2022-11-21T02:36:46.217Z,-0.60
2022-11-21T02:39:20.746Z,-0.60
2022-11-21T02:41:59.970Z,-0.60
2022-11-21T02:44:35.005Z,-0.60
2022-11-21T02:47:02.979Z,-0.60
2022-11-21T02:49:38.977Z,-0.60
2022-11-21T02:52:07.075Z,-0.60
2022-11-21T02:54:35.055Z,-0.60
2022-11-21T02:57:04.484Z,-0.60
2022-11-21T02:59:32.476Z,-0.60
2022-11-21T03:02:01.110Z,-0.60
2022-11-21T03:04:29.515Z,-0.70
2022-11-21T03:06:57.747Z,-0.70
2022-11-21T03:09:25.779Z,-0.70
2022-11-21T03:11:53.789Z,-0.70
2022-11-21T03:14:23.123Z,-0.70
2022-11-21T03:16:51.107Z,-0.70
2022-11-21T03:19:19.092Z,-0.80
2022-11-21T03:21:47.115Z,-0.70
2022-11-21T03:24:15.108Z,-0.70
2022-11-21T03:26:43.122Z,-0.80
2022-11-21T03:29:11.130Z,-0.80
2022-11-21T03:31:40.846Z,-0.80
2022-11-21T03:34:08.971Z,-0.90
2022-11-21T03:36:37.020Z,-1.00
2022-11-21T03:39:05.331Z,-1.00
2022-11-21T03:41:33.312Z,-1.00
2022-11-21T03:44:02.732Z,-1.00
2022-11-21T03:46:32.861Z,-1.10
2022-11-21T03:49:02.217Z,-1.10
2022-11-21T03:51:30.428Z,-1.10
2022-11-21T03:53:58.542Z,-1.10
2022-11-21T03:56:27.315Z,-1.10
2022-11-21T03:58:55.735Z,-1.10
2022-11-21T04:01:24.821Z,-1.10
2022-11-21T04:03:53.176Z,-1.00
2022-11-21T04:06:24.711Z,-1.10
2022-11-21T04:08:52.855Z,-1.10
2022-11-21T04:11:23.430Z,-1.20
2022-11-21T04:13:51.477Z,-1.20
2022-11-21T04:16:19.556Z,-1.30
2022-11-21T04:18:47.536Z,-1.40
2022-11-21T04:21:15.551Z,-1.40
2022-11-21T04:23:44.933Z,-1.40
2022-11-21T04:26:12.963Z,-1.50
2022-11-21T04:28:40.941Z,-1.60
2022-11-21T04:31:11.443Z,-1.60
2022-11-21T04:33:40.233Z,-1.50
2022-11-21T04:36:09.548Z,-1.50
2022-11-21T04:38:38.205Z,-1.50
2022-11-21T04:41:07.687Z,-1.50
2022-11-21T04:43:35.704Z,-1.50
2022-11-21T04:46:03.701Z,-1.50
2022-11-21T04:48:32.619Z,-1.50
2022-11-21T04:51:00.688Z,-1.60
2022-11-21T04:53:28.692Z,-1.50
2022-11-21T04:55:56.751Z,-1.50
2022-11-21T04:58:26.144Z,-1.50
2022-11-21T05:00:54.220Z,-1.40
2022-11-21T05:03:22.377Z,-1.40
2022-11-21T05:05:50.490Z,-1.40
2022-11-21T05:08:18.457Z,-1.40
2022-11-21T05:11:03.865Z,-1.40
2022-11-21T05:13:33.250Z,-1.40
2022-11-21T05:16:01.252Z,-1.30
2022-11-21T05:18:29.561Z,-1.30
2022-11-21T05:20:57.568Z,-1.30
2022-11-21T05:23:25.554Z,-1.30
2022-11-21T05:25:53.555Z,-1.30
2022-11-21T05:28:21.540Z,-1.20
2022-11-21T05:30:50.899Z,-1.20
2022-11-21T05:33:18.976Z,-1.20
2022-11-21T05:35:46.968Z,-1.20
2022-11-21T05:38:14.949Z,-1.20
2022-11-21T05:40:43.034Z,-1.20
2022-11-21T05:43:30.019Z,-1.20
2022-11-21T05:45:59.527Z,-1.20
2022-11-21T05:48:27.514Z,-1.20
2022-11-21T05:50:55.746Z,-1.20
2022-11-21T05:53:23.763Z,-1.20
2022-11-21T05:55:51.777Z,-1.20
2022-11-21T05:58:19.891Z,-1.10
2022-11-21T06:00:47.887Z,-1.20
2022-11-21T06:03:28.228Z,-1.20
2022-11-21T06:06:04.731Z,-1.20
2022-11-21T06:08:34.796Z,-1.10
2022-11-21T06:11:04.001Z,-1.10
2022-11-21T06:13:33.725Z,-1.10
2022-11-21T06:16:05.811Z,-1.10
2022-11-21T06:18:36.618Z,-1.00
2022-11-21T06:21:06.097Z,-1.00
2022-11-21T06:23:34.369Z,-1.00
2022-11-21T06:26:06.360Z,-1.00
2022-11-21T06:28:35.784Z,-1.00
2022-11-21T06:31:04.924Z,-1.00
2022-11-21T06:33:33.070Z,-0.90
2022-11-21T06:36:04.657Z,-0.90
2022-11-21T06:38:32.792Z,-0.90
2022-11-21T06:41:05.622Z,-0.90
2022-11-21T06:43:33.736Z,-0.90
2022-11-21T06:46:03.287Z,-0.90
2022-11-21T06:48:31.922Z,-0.90
2022-11-21T06:51:00.076Z,-0.80
2022-11-21T06:53:29.404Z,-0.80
2022-11-21T06:55:59.999Z,-0.80
2022-11-21T06:58:29.538Z,-0.70
2022-11-21T07:00:57.614Z,-0.70
2022-11-21T07:03:25.956Z,-0.70
2022-11-21T07:05:58.433Z,-0.60
2022-11-21T07:08:27.376Z,-0.60
2022-11-21T07:11:23.086Z,-0.60
2022-11-21T07:13:45.094Z,-0.50
2022-11-21T07:16:15.229Z,-0.50
2022-11-21T07:18:44.492Z,-0.40
2022-11-21T07:21:12.671Z,-0.40
2022-11-21T07:23:40.858Z,-0.30
2022-11-21T07:26:11.637Z,-0.20
2022-11-21T07:28:39.722Z,0.30
2022-11-21T07:31:13.162Z,0.90
2022-11-21T07:33:43.219Z,1.60
2022-11-21T07:36:11.520Z,2.20
2022-11-21T07:38:42.456Z,2.80
2022-11-21T07:41:11.994Z,3.30
2022-11-21T07:43:39.990Z,3.90
2022-11-21T07:46:07.975Z,4.20
2022-11-21T07:48:35.989Z,4.60
2022-11-21T07:51:06.200Z,5.00
2022-11-21T07:53:34.267Z,5.50
2022-11-21T07:56:02.278Z,5.80
2022-11-21T07:58:31.819Z,6.20
2022-11-21T08:00:59.820Z,6.50
2022-11-21T08:03:27.798Z,6.70
2022-11-21T08:05:55.777Z,6.90
2022-11-21T08:08:23.916Z,7.00
2022-11-21T08:10:51.964Z,7.20
2022-11-21T08:13:20.038Z,7.00
2022-11-21T08:15:49.557Z,7.00
2022-11-21T08:18:20.004Z,6.70
2022-11-21T08:20:49.450Z,6.50
2022-11-21T08:23:17.681Z,6.40
2022-11-21T08:25:46.170Z,6.20
2022-11-21T08:28:15.933Z,6.00
2022-11-21T08:30:46.491Z,5.80
2022-11-21T08:33:16.365Z,5.50
2022-11-21T08:35:44.346Z,5.30
2022-11-21T08:38:12.424Z,5.20
2022-11-21T08:40:41.623Z,5.10
2022-11-21T08:43:11.319Z,5.10
2022-11-21T08:45:40.009Z,5.20
2022-11-21T08:48:12.194Z,5.10
2022-11-21T08:50:44.115Z,5.10
2022-11-21T08:53:12.149Z,5.30
2022-11-21T08:55:40.156Z,5.70
2022-11-21T08:58:08.148Z,6.20
2022-11-21T09:00:36.179Z,6.80
2022-11-21T09:03:05.793Z,7.30
2022-11-21T09:05:34.071Z,7.50
2022-11-21T09:08:03.442Z,7.60
2022-11-21T09:10:31.456Z,7.70
2022-11-21T09:13:00.090Z,7.40
2022-11-21T09:15:45.351Z,7.40
2022-11-21T09:18:13.615Z,7.30
2022-11-21T09:20:43.439Z,7.10
2022-11-21T09:23:14.747Z,6.80
2022-11-21T09:25:43.124Z,6.50
2022-11-21T09:28:13.387Z,6.20
2022-11-21T09:30:42.237Z,5.90
2022-11-21T09:33:13.313Z,5.70
2022-11-21T09:35:41.816Z,5.60
2022-11-21T09:38:10.351Z,5.50
2022-11-21T09:40:44.377Z,5.30
2022-11-21T09:43:36.063Z,5.10
2022-11-21T09:46:10.421Z,5.10
2022-11-21T09:48:49.621Z,4.90
2022-11-21T09:51:20.483Z,4.90
2022-11-21T09:53:58.147Z,4.80
2022-11-21T09:56:32.177Z,4.70
2022-11-21T09:59:13.765Z,4.60
2022-11-21T10:01:41.771Z,4.60
2022-11-21T10:04:10.036Z,4.50
2022-11-21T10:06:42.643Z,4.50
2022-11-21T10:09:23.668Z,4.40
2022-11-21T10:12:20.473Z,4.40
2022-11-21T10:15:04.867Z,4.30
2022-11-21T10:17:45.487Z,4.30
2022-11-21T10:20:25.826Z,4.20
2022-11-21T10:23:09.868Z,4.20
2022-11-21T10:25:39.070Z,4.20
2022-11-21T10:28:16.519Z,4.20
2022-11-21T10:30:46.947Z,4.20
2022-11-21T10:33:22.252Z,4.10
2022-11-21T10:35:54.581Z,4.10
2022-11-21T10:38:24.520Z,4.10
2022-11-21T10:40:56.112Z,4.10
2022-11-21T10:43:52.487Z,4.00
2022-11-21T10:46:20.537Z,4.10
2022-11-21T10:48:56.458Z,4.10
2022-11-21T10:51:36.739Z,4.20
2022-11-21T10:54:24.449Z,4.20
2022-11-21T10:56:55.504Z,4.20
2022-11-21T10:59:30.741Z,4.30
2022-11-21T11:02:01.039Z,4.40
2022-11-21T11:04:35.341Z,4.40
2022-11-21T11:07:22.849Z,4.50
2022-11-21T11:09:52.364Z,4.50
2022-11-21T11:12:48.874Z,4.50
2022-11-21T11:15:24.351Z,4.50
2022-11-21T11:17:58.005Z,4.50
2022-11-21T11:20:38.142Z,4.40
2022-11-21T11:23:26.587Z,4.40
2022-11-21T11:25:56.571Z,4.50
2022-11-21T11:28:25.318Z,4.40
2022-11-21T11:30:56.561Z,4.40
2022-11-21T11:33:36.415Z,4.30
2022-11-21T11:36:13.800Z,4.30
2022-11-21T11:38:48.467Z,4.30
2022-11-21T11:42:00.639Z,4.30
2022-11-21T11:44:55.492Z,4.30
2022-11-21T11:47:32.556Z,4.30
2022-11-21T11:50:12.995Z,4.30
2022-11-21T11:52:51.534Z,4.20
2022-11-21T11:55:24.990Z,4.20
2022-11-21T11:57:55.908Z,4.20
2022-11-21T12:00:41.568Z,4.20
2022-11-21T12:03:16.570Z,4.20
2022-11-21T12:05:54.289Z,4.20
2022-11-21T12:08:43.454Z,4.20
2022-11-21T12:11:43.909Z,4.20
2022-11-21T12:14:48.701Z,4.30
2022-11-21T12:17:21.070Z,4.30
2022-11-21T12:19:53.407Z,4.30
2022-11-21T12:22:21.782Z,4.30
2022-11-21T12:24:50.007Z,4.30
2022-11-21T12:27:29.392Z,4.30
2022-11-21T12:30:29.771Z,4.30
2022-11-21T12:33:08.788Z,4.30
2022-11-21T12:35:48.076Z,4.30
2022-11-21T12:38:32.012Z,4.30
2022-11-21T12:41:32.257Z,4.30
2022-11-21T12:44:12.099Z,4.30
2022-11-21T12:46:50.123Z,4.30
2022-11-21T12:49:49.109Z,4.30
2022-11-21T12:52:47.467Z,4.30
2022-11-21T12:55:40.127Z,4.30
2022-11-21T12:58:17.377Z,4.30
2022-11-21T13:00:56.310Z,4.30
2022-11-21T13:03:40.012Z,4.30
2022-11-21T13:06:16.427Z,4.30
2022-11-21T13:08:48.538Z,4.30
2022-11-21T13:11:49.399Z,4.20
2022-11-21T13:14:24.312Z,4.20
2022-11-21T13:17:03.668Z,4.20
2022-11-21T13:19:43.385Z,4.20
2022-11-21T13:22:43.738Z,4.20
2022-11-21T13:25:14.686Z,4.20
2022-11-21T13:27:43.484Z,4.20
2022-11-21T13:30:23.793Z,4.10
2022-11-21T13:32:53.377Z,4.10
2022-11-21T13:36:04.001Z,4.10
2022-11-21T13:38:32.419Z,4.10
2022-11-21T13:41:22.321Z,4.10
2022-11-21T13:43:50.368Z,4.10
2022-11-21T13:46:58.975Z,4.10
2022-11-21T13:49:32.681Z,4.10
2022-11-21T13:52:05.444Z,4.00
2022-11-21T13:55:05.909Z,4.10
2022-11-21T13:57:59.341Z,4.00
2022-11-21T14:00:39.226Z,4.00
2022-11-21T14:03:42.480Z,4.00
2022-11-21T14:06:33.201Z,4.00
2022-11-21T14:09:27.262Z,4.00
2022-11-21T14:11:59.338Z,3.90
2022-11-21T14:14:36.299Z,3.90
2022-11-21T14:17:33.934Z,3.90
2022-11-21T14:20:09.064Z,3.90
2022-11-21T14:22:47.914Z,3.90
2022-11-21T14:25:19.457Z,3.90
2022-11-21T14:27:49.955Z,3.80
2022-11-21T14:30:32.570Z,3.80
2022-11-21T14:33:18.747Z,3.80
2022-11-21T14:35:49.613Z,3.80
2022-11-21T14:38:17.955Z,3.80
2022-11-21T14:40:45.955Z,3.80
2022-11-21T14:43:31.130Z,3.80
2022-11-21T14:46:00.857Z,3.70
2022-11-21T14:48:30.624Z,3.80
2022-11-21T14:51:01.888Z,3.70
2022-11-21T14:53:30.138Z,3.70
2022-11-21T14:56:01.432Z,3.70
2022-11-21T14:58:29.856Z,3.70
2022-11-21T15:01:07.683Z,3.60
2022-11-21T15:03:36.187Z,3.60
2022-11-21T15:06:08.253Z,3.60
2022-11-21T15:11:33.427Z,3.50
2022-11-21T15:14:16.929Z,3.50
2022-11-21T15:16:49.042Z,3.50
2022-11-21T15:19:24.403Z,3.50
2022-11-21T15:21:54.111Z,3.40
2022-11-21T15:24:31.290Z,3.40
2022-11-21T15:26:59.911Z,3.40
2022-11-21T15:29:30.620Z,3.40
2022-11-21T15:32:15.853Z,3.40
2022-11-21T15:35:01.497Z,3.40
2022-11-21T15:37:29.602Z,3.40
2022-11-21T15:39:59.131Z,3.40
2022-11-21T15:42:37.192Z,3.40
2022-11-21T15:45:23.819Z,3.40
2022-11-21T15:47:53.259Z,3.40
2022-11-21T15:50:27.744Z,3.40
2022-11-21T15:52:55.889Z,3.30
2022-11-21T15:55:28.209Z,3.40
2022-11-21T15:57:56.280Z,3.30
2022-11-21T16:00:24.570Z,3.40
2022-11-21T16:02:53.914Z,3.40
2022-11-21T16:05:21.933Z,3.30
2022-11-21T16:07:50.013Z,3.30
2022-11-21T16:10:27.580Z,3.30
2022-11-21T16:12:56.318Z,3.30
2022-11-21T16:15:24.707Z,3.40
2022-11-21T16:17:54.288Z,3.40
2022-11-21T16:20:22.404Z,3.30
2022-11-21T16:22:50.464Z,3.40
2022-11-21T16:25:21.513Z,3.40
2022-11-21T16:27:49.617Z,3.30
2022-11-21T16:30:17.754Z,3.30
2022-11-21T16:32:46.944Z,3.30
2022-11-21T16:35:16.660Z,3.30
2022-11-21T16:37:44.644Z,3.40
2022-11-21T16:40:14.270Z,3.40
2022-11-21T16:42:42.637Z,3.30
2022-11-21T16:45:12.655Z,3.40
2022-11-21T16:47:44.395Z,3.30
2022-11-21T16:50:18.784Z,3.30
2022-11-21T16:52:46.750Z,3.30
2022-11-21T16:55:17.378Z,3.30
2022-11-21T16:57:45.385Z,3.30
2022-11-21T17:00:13.967Z,3.30
2022-11-21T17:02:44.865Z,3.40
2022-11-21T17:05:12.921Z,3.30
2022-11-21T17:07:42.465Z,3.40
2022-11-21T17:10:11.089Z,3.30
2022-11-21T17:12:39.608Z,3.40
2022-11-21T17:15:10.479Z,3.40
2022-11-21T17:17:38.921Z,3.40
2022-11-21T17:20:11.346Z,3.40
2022-11-21T17:22:39.466Z,3.40
2022-11-21T17:25:09.939Z,3.40
2022-11-21T17:27:38.732Z,3.40
2022-11-21T17:30:08.348Z,3.40
2022-11-21T17:32:36.820Z,3.40
2022-11-21T17:35:05.519Z,3.40
2022-11-21T17:37:33.586Z,3.40
2022-11-21T17:40:01.611Z,3.40
2022-11-21T17:42:31.014Z,3.40
2022-11-21T17:44:59.020Z,3.40
2022-11-21T17:47:27.066Z,3.40
2022-11-21T17:49:55.444Z,3.40
2022-11-21T17:52:23.468Z,3.40
2022-11-21T17:54:51.479Z,3.40
2022-11-21T17:57:19.481Z,3.40
2022-11-21T17:59:48.832Z,3.40
2022-11-21T18:02:18.080Z,3.40
2022-11-21T18:04:47.157Z,3.40
2022-11-21T18:07:15.252Z,3.40
2022-11-21T18:09:43.266Z,3.40
2022-11-21T18:12:11.315Z,3.40
2022-11-21T18:14:39.351Z,3.40
2022-11-21T18:17:08.708Z,3.50
2022-11-21T18:19:36.732Z,3.50
2022-11-21T18:22:04.743Z,3.50
2022-11-21T18:24:33.021Z,3.50
2022-11-21T18:27:01.056Z,3.40
2022-11-21T18:29:36.338Z,3.50
2022-11-21T18:32:05.293Z,3.50
2022-11-21T18:34:35.003Z,3.50
2022-11-21T18:37:03.012Z,3.50
2022-11-21T18:39:31.207Z,3.50
2022-11-21T18:41:59.272Z,3.50
2022-11-21T18:44:27.256Z,3.50
2022-11-21T18:46:55.260Z,3.50
2022-11-21T18:49:23.571Z,3.50
2022-11-21T18:51:52.905Z,3.60
2022-11-21T18:54:20.958Z,3.50
2022-11-21T18:56:51.438Z,3.50
2022-11-21T18:59:19.480Z,3.50
2022-11-21T19:01:47.537Z,3.50
2022-11-21T19:04:15.786Z,3.50
2022-11-21T19:06:43.776Z,3.50
2022-11-21T19:09:14.807Z,3.50
2022-11-21T19:11:42.815Z,3.50
2022-11-21T19:14:10.843Z,3.50
2022-11-21T19:16:38.897Z,3.50
2022-11-21T19:21:55.688Z,3.50
2022-11-21T19:24:25.139Z,3.40
2022-11-21T19:26:53.167Z,3.40
2022-11-21T19:29:21.170Z,3.40
2022-11-21T19:31:49.162Z,3.40
2022-11-21T19:34:17.874Z,3.40
2022-11-21T19:36:46.559Z,3.40
2022-11-21T19:39:14.745Z,3.40
2022-11-21T19:41:44.192Z,3.40
2022-11-21T19:44:12.482Z,3.40
2022-11-21T19:46:42.176Z,3.40
2022-11-21T19:49:12.494Z,3.40
2022-11-21T19:51:43.280Z,3.40
2022-11-21T19:54:13.175Z,3.40
2022-11-21T19:56:45.674Z,3.40
2022-11-21T19:59:14.910Z,3.40
2022-11-21T20:01:44.824Z,3.40
2022-11-21T20:04:15.054Z,3.40
2022-11-21T20:06:45.910Z,3.40
2022-11-21T20:09:15.659Z,3.40
2022-11-21T20:11:47.054Z,3.40
2022-11-21T20:14:21.551Z,3.40
2022-11-21T20:16:52.749Z,3.50
2022-11-21T20:19:22.694Z,3.40
2022-11-21T20:21:53.771Z,3.40
2022-11-21T20:24:23.087Z,3.50
2022-11-21T20:26:53.638Z,3.40
2022-11-21T20:29:21.742Z,3.40
2022-11-21T20:31:49.980Z,3.40
2022-11-21T20:34:17.995Z,3.40
2022-11-21T20:36:46.585Z,3.40
2022-11-21T20:39:15.867Z,3.50
2022-11-21T20:41:45.259Z,3.50
2022-11-21T20:47:05.421Z,3.50
2022-11-21T20:49:34.433Z,3.50
2022-11-21T20:53:43.800Z,3.50
2022-11-21T20:54:50.725Z,3.50
2022-11-21T20:57:18.756Z,3.50
2022-11-21T20:59:48.203Z,3.50
2022-11-21T21:02:16.219Z,3.50
2022-11-21T21:04:44.492Z,3.50
2022-11-21T21:07:12.702Z,3.50
2022-11-21T21:09:42.805Z,3.50
2022-11-21T21:12:10.822Z,3.50
2022-11-21T21:14:39.033Z,3.50
2022-11-21T21:17:08.407Z,3.40
2022-11-21T21:19:36.420Z,3.50
2022-11-21T21:22:05.104Z,3.50
2022-11-21T21:24:33.200Z,3.50
2022-11-21T21:27:01.170Z,3.50
2022-11-21T21:29:29.475Z,3.50
2022-11-21T21:31:57.843Z,3.50
2022-11-21T21:34:27.424Z,3.50
2022-11-21T21:36:55.764Z,3.40
2022-11-21T21:39:23.761Z,3.50
2022-11-21T21:41:51.771Z,3.40
2022-11-21T21:44:19.793Z,3.50
2022-11-21T21:46:47.945Z,3.50
2022-11-21T21:49:15.954Z,3.50
2022-11-21T21:51:45.327Z,3.50
2022-11-21T21:54:18.500Z,3.50
2022-11-21T21:56:47.099Z,3.50
2022-11-21T21:59:17.872Z,3.50
2022-11-21T22:01:46.514Z,3.40
2022-11-21T22:04:14.602Z,3.40
2022-11-21T22:06:42.608Z,3.40
2022-11-21T22:09:12.059Z,3.40
2022-11-21T22:11:40.294Z,3.40
2022-11-21T22:14:11.184Z,3.40
2022-11-21T22:16:42.007Z,3.30
2022-11-21T22:19:10.402Z,3.30
2022-11-21T22:21:39.660Z,3.30
2022-11-21T22:24:30.803Z,3.30
2022-11-21T22:26:58.938Z,3.30
2022-11-21T22:29:27.080Z,3.30
2022-11-21T22:31:55.124Z,3.20
2022-11-21T22:34:23.447Z,3.20
2022-11-21T22:36:51.467Z,3.20
2022-11-21T22:39:21.007Z,3.20
2022-11-21T22:41:48.959Z,3.10
2022-11-21T22:44:17.476Z,3.10
2022-11-21T22:46:45.483Z,3.00
2022-11-21T22:49:14.293Z,3.00
2022-11-21T22:51:42.250Z,3.00
2022-11-21T22:54:12.923Z,3.00
2022-11-21T22:56:42.711Z,3.00
2022-11-21T22:59:13.517Z,2.90
2022-11-21T23:01:41.573Z,2.90
2022-11-21T23:04:13.260Z,2.90
2022-11-21T23:06:44.266Z,2.80
2022-11-21T23:09:12.400Z,2.80
2022-11-21T23:11:41.133Z,2.80
2022-11-21T23:14:10.681Z,2.80
2022-11-21T23:16:39.215Z,2.70
2022-11-21T23:19:07.348Z,2.70
2022-11-21T23:21:35.346Z,2.60
2022-11-21T23:24:03.667Z,2.60
2022-11-21T23:26:31.608Z,2.60
2022-11-21T23:29:05.052Z,2.60
2022-11-21T23:31:37.501Z,2.60
2022-11-21T23:34:05.958Z,2.50
2022-11-21T23:36:34.025Z,2.50
2022-11-21T23:39:02.495Z,2.50
2022-11-21T23:41:30.825Z,2.50
2022-11-21T23:43:59.999Z,2.50
2022-11-21T23:46:28.523Z,2.50
2022-11-21T23:48:57.956Z,2.40
2022-11-21T23:51:26.016Z,2.40
2022-11-21T23:53:54.115Z,2.40
2022-11-21T23:56:22.132Z,2.40
2022-11-21T23:58:50.414Z,2.40
